createdAt,value
2023-05-06T00:01:59.064Z,7.65
2023-05-06T00:04:31.436Z,6.68
2023-05-06T00:07:01.312Z,7.30
2023-05-06T00:09:31.066Z,7.97
2023-05-06T00:12:00.775Z,6.75
2023-05-06T00:14:30.477Z,7.95
2023-05-06T00:17:00.206Z,8.07
2023-05-06T00:19:32.586Z,8.27
2023-05-06T00:22:02.489Z,7.60
2023-05-06T00:24:32.220Z,8.05
2023-05-06T00:27:01.981Z,8.95
2023-05-06T00:29:31.909Z,7.82
2023-05-06T00:32:01.862Z,7.43
2023-05-06T00:34:34.237Z,9.07
2023-05-06T00:37:03.955Z,8.23
2023-05-06T00:39:34.098Z,8.10
2023-05-06T00:42:04.517Z,8.20
2023-05-06T00:44:34.686Z,8.65
2023-05-06T00:47:04.470Z,8.55
2023-05-06T00:49:36.936Z,7.32
2023-05-06T00:52:07.311Z,7.10
2023-05-06T00:54:37.759Z,7.72
2023-05-06T00:57:07.621Z,8.13
2023-05-06T00:59:37.399Z,7.47
2023-05-06T01:02:07.868Z,6.90
2023-05-06T01:04:41.675Z,7.22
2023-05-06T01:07:15.112Z,7.68
2023-05-06T01:09:45.982Z,8.27
2023-05-06T01:12:20.220Z,7.72
2023-05-06T01:14:52.563Z,9.45
2023-05-06T01:17:23.489Z,9.00
2023-05-06T01:19:58.821Z,8.07
2023-05-06T01:22:29.685Z,8.80
2023-05-06T01:25:02.306Z,8.98
2023-05-06T01:27:32.057Z,9.90
2023-05-06T01:30:02.635Z,10.75
2023-05-06T01:32:39.231Z,9.80
2023-05-06T01:35:13.565Z,10.35
2023-05-06T01:37:47.792Z,10.75
2023-05-06T01:40:20.992Z,11.20
2023-05-06T01:42:51.642Z,11.82
2023-05-06T01:45:22.992Z,10.40
2023-05-06T01:47:53.084Z,10.57
2023-05-06T01:50:23.277Z,11.65
2023-05-06T01:52:58.797Z,10.18
2023-05-06T01:55:32.775Z,11.98
2023-05-06T01:58:02.488Z,11.68
2023-05-06T02:00:32.179Z,10.77
2023-05-06T02:03:02.173Z,11.57
2023-05-06T02:05:32.221Z,10.30
2023-05-06T02:08:02.408Z,11.23
2023-05-06T02:10:34.894Z,11.02
2023-05-06T02:13:04.676Z,10.57
2023-05-06T02:15:34.426Z,11.07
2023-05-06T02:18:04.401Z,11.13
2023-05-06T02:20:34.146Z,10.30
2023-05-06T02:23:04.035Z,10.60
2023-05-06T02:25:36.639Z,11.18
2023-05-06T02:28:06.528Z,10.18
2023-05-06T02:30:36.948Z,10.80
2023-05-06T02:33:07.029Z,11.23
2023-05-06T02:35:36.759Z,11.27
2023-05-06T02:38:06.703Z,10.48
2023-05-06T02:40:39.019Z,10.88
2023-05-06T02:43:08.845Z,10.50
2023-05-06T02:45:38.623Z,10.52
2023-05-06T02:48:08.799Z,11.00
2023-05-06T02:50:38.892Z,10.57
2023-05-06T02:53:09.210Z,11.63
2023-05-06T02:55:41.997Z,10.98
2023-05-06T02:58:11.940Z,11.68
2023-05-06T03:00:41.611Z,10.80
2023-05-06T03:03:11.693Z,11.68
2023-05-06T03:05:41.822Z,11.07
2023-05-06T03:08:11.554Z,11.00
2023-05-06T03:10:44.171Z,11.35
2023-05-06T03:13:14.210Z,11.27
2023-05-06T03:15:44.418Z,10.80
2023-05-06T03:18:14.226Z,11.23
2023-05-06T03:20:43.973Z,11.63
2023-05-06T03:23:13.684Z,12.35
2023-05-06T03:25:46.347Z,12.07
2023-05-06T03:28:16.263Z,11.07
2023-05-06T03:30:46.202Z,11.82
2023-05-06T03:33:15.981Z,12.10
2023-05-06T03:35:45.852Z,12.23
2023-05-06T03:38:15.580Z,11.48
2023-05-06T03:40:48.143Z,11.98
2023-05-06T03:43:17.856Z,11.68
2023-05-06T03:45:47.687Z,10.20
2023-05-06T03:48:17.515Z,12.00
2023-05-06T03:50:47.652Z,11.00
2023-05-06T03:53:17.357Z,10.23
2023-05-06T03:55:49.668Z,10.85
2023-05-06T03:58:19.353Z,11.75
2023-05-06T04:00:49.314Z,10.02
2023-05-06T04:03:19.094Z,11.32
2023-05-06T04:05:49.399Z,11.85
2023-05-06T04:08:19.829Z,11.32
2023-05-06T04:10:52.122Z,11.18
2023-05-06T04:13:21.898Z,11.77
2023-05-06T04:15:52.645Z,11.50
2023-05-06T04:18:22.560Z,12.07
2023-05-06T04:20:52.302Z,13.15
2023-05-06T04:23:22.301Z,13.02
2023-05-06T04:25:55.115Z,11.57
2023-05-06T04:28:24.841Z,12.07
2023-05-06T04:30:54.929Z,13.88
2023-05-06T04:33:25.284Z,16.10
2023-05-06T04:35:56.380Z,14.85
2023-05-06T04:38:30.466Z,12.23
2023-05-06T04:41:03.040Z,12.57
2023-05-06T04:43:32.959Z,11.05
2023-05-06T04:46:02.751Z,11.80
2023-05-06T04:48:32.729Z,10.75
2023-05-06T04:51:04.673Z,9.07
2023-05-06T04:53:34.483Z,10.00
2023-05-06T04:56:07.110Z,9.52
2023-05-06T04:58:36.830Z,9.00
2023-05-06T05:01:07.569Z,9.45
2023-05-06T05:03:37.419Z,9.35
2023-05-06T05:06:07.735Z,8.00
2023-05-06T05:08:37.687Z,8.48
2023-05-06T05:11:11.412Z,8.73
2023-05-06T05:13:41.351Z,8.32
2023-05-06T05:16:11.387Z,9.50
2023-05-06T05:18:41.318Z,7.15
2023-05-06T05:21:11.221Z,8.65
2023-05-06T05:23:40.942Z,9.55
2023-05-06T05:26:13.481Z,8.02
2023-05-06T05:28:43.906Z,8.68
2023-05-06T05:31:13.900Z,8.35
2023-05-06T05:33:43.863Z,7.93
2023-05-06T05:36:15.558Z,8.30
2023-05-06T05:38:46.006Z,7.88
2023-05-06T05:41:18.310Z,7.75
2023-05-06T05:43:48.311Z,8.07
2023-05-06T05:46:18.469Z,6.45
2023-05-06T05:48:48.248Z,6.43
2023-05-06T05:51:18.016Z,6.88
2023-05-06T05:53:47.718Z,5.55
2023-05-06T05:56:20.052Z,5.13
2023-05-06T05:58:50.230Z,6.10
2023-05-06T06:01:20.474Z,5.22
2023-05-06T06:03:50.616Z,5.57
2023-05-06T06:06:20.565Z,5.97
2023-05-06T06:08:50.386Z,5.13
2023-05-06T06:11:22.744Z,5.50
2023-05-06T06:13:53.194Z,5.57
2023-05-06T06:16:23.072Z,5.75
2023-05-06T06:18:52.960Z,5.32
2023-05-06T06:21:22.718Z,5.38
2023-05-06T06:23:52.469Z,5.07
2023-05-06T06:26:24.807Z,4.45
2023-05-06T06:28:54.520Z,4.13
2023-05-06T06:31:24.277Z,3.78
2023-05-06T06:33:54.127Z,4.53
2023-05-06T06:36:24.280Z,4.65
2023-05-06T06:38:54.000Z,4.65
2023-05-06T06:41:26.485Z,4.93
2023-05-06T06:43:56.259Z,4.00
2023-05-06T06:46:26.107Z,5.28
2023-05-06T06:48:56.022Z,5.57
2023-05-06T06:51:26.059Z,4.28
2023-05-06T06:53:56.732Z,4.22
2023-05-06T06:56:29.327Z,4.55
2023-05-06T06:58:59.087Z,3.80
2023-05-06T07:01:28.826Z,4.75
2023-05-06T07:03:58.623Z,4.18
2023-05-06T07:06:28.405Z,3.83
2023-05-06T07:08:58.489Z,3.97
2023-05-06T07:11:31.250Z,4.10
2023-05-06T07:14:00.980Z,4.72
2023-05-06T07:16:30.963Z,4.07
2023-05-06T07:19:00.891Z,4.20
2023-05-06T07:21:32.770Z,4.65
2023-05-06T07:24:02.516Z,4.63
2023-05-06T07:26:37.935Z,4.50
2023-05-06T07:29:07.699Z,4.18
2023-05-06T07:31:37.549Z,3.83
2023-05-06T07:34:07.974Z,3.20
2023-05-06T07:36:40.990Z,3.08
2023-05-06T07:41:43.496Z,1.77
2023-05-06T07:44:13.233Z,2.72
2023-05-06T07:46:43.355Z,2.38
2023-05-06T07:49:13.519Z,3.90
2023-05-06T07:51:44.886Z,3.17
2023-05-06T07:54:14.884Z,3.20
2023-05-06T07:56:47.210Z,2.60
2023-05-06T07:59:17.419Z,2.95
2023-05-06T08:01:47.133Z,2.03
2023-05-06T08:04:17.546Z,2.53
2023-05-06T08:06:47.258Z,2.70
2023-05-06T08:09:22.773Z,2.10
2023-05-06T08:11:56.502Z,2.03
2023-05-06T08:14:26.564Z,1.90
2023-05-06T08:16:56.333Z,1.83
2023-05-06T08:19:26.641Z,1.50
2023-05-06T08:21:56.616Z,1.98
2023-05-06T08:24:26.398Z,1.90
2023-05-06T08:26:58.737Z,1.88
2023-05-06T08:29:28.742Z,1.88
2023-05-06T08:31:58.562Z,1.80
2023-05-06T08:34:28.617Z,1.95
2023-05-06T08:36:58.437Z,1.67
2023-05-06T08:39:28.678Z,1.58
2023-05-06T08:42:02.416Z,1.92
2023-05-06T08:44:32.162Z,1.58
2023-05-06T08:47:02.324Z,1.80
2023-05-06T08:49:32.295Z,1.70
2023-05-06T08:52:02.493Z,1.48
2023-05-06T08:54:32.562Z,1.98
2023-05-06T08:57:06.927Z,2.45
2023-05-06T08:59:36.893Z,2.80
2023-05-06T09:02:07.264Z,3.13
2023-05-06T09:04:37.061Z,3.05
2023-05-06T09:07:06.869Z,2.90
2023-05-06T09:09:36.709Z,2.45
2023-05-06T09:12:14.046Z,2.35
2023-05-06T09:14:44.309Z,2.22
2023-05-06T09:17:24.420Z,1.80
2023-05-06T09:19:57.180Z,2.30
2023-05-06T09:22:27.385Z,2.30
2023-05-06T09:24:59.575Z,1.90
2023-05-06T09:27:34.258Z,1.80
2023-05-06T09:30:05.117Z,2.30
2023-05-06T09:32:37.357Z,1.60
2023-05-06T09:35:10.054Z,2.00
2023-05-06T09:37:40.069Z,2.45
2023-05-06T09:40:11.211Z,2.38
2023-05-06T09:42:46.232Z,1.83
2023-05-06T09:45:18.915Z,2.50
2023-05-06T09:47:49.870Z,2.28
2023-05-06T09:50:20.156Z,2.53
2023-05-06T09:52:50.934Z,2.13
2023-05-06T09:55:21.502Z,2.38
2023-05-06T09:57:54.073Z,1.75
2023-05-06T10:00:28.234Z,1.67
2023-05-06T10:02:59.123Z,2.58
2023-05-06T10:05:30.073Z,1.50
2023-05-06T10:08:00.592Z,1.40
2023-05-06T10:10:31.392Z,1.65
2023-05-06T10:13:05.209Z,1.90
2023-05-06T10:15:35.632Z,1.88
2023-05-06T10:18:05.704Z,1.42
2023-05-06T10:20:37.010Z,1.95
2023-05-06T10:23:13.030Z,2.10
2023-05-06T10:25:44.487Z,1.58
2023-05-06T10:28:30.360Z,1.85
2023-05-06T10:31:01.866Z,1.95
2023-05-06T10:33:31.909Z,1.85
2023-05-06T10:36:07.853Z,1.55
2023-05-06T10:38:40.693Z,1.70
2023-05-06T10:41:10.970Z,2.15
2023-05-06T10:43:45.509Z,1.70
2023-05-06T10:46:17.136Z,1.40
2023-05-06T10:49:01.805Z,1.48
2023-05-06T10:51:31.837Z,1.50
2023-05-06T10:54:02.779Z,1.60
2023-05-06T10:56:33.853Z,1.77
2023-05-06T10:59:10.732Z,1.27
2023-05-06T11:01:41.113Z,1.13
2023-05-06T11:04:11.668Z,1.35
2023-05-06T11:06:42.965Z,2.13
2023-05-06T11:09:20.148Z,2.00
2023-05-06T11:11:51.170Z,1.60
2023-05-06T11:14:36.923Z,1.70
2023-05-06T11:17:07.505Z,1.90
2023-05-06T11:19:37.835Z,1.75
2023-05-06T11:22:08.259Z,1.90
2023-05-06T11:24:41.888Z,2.30
2023-05-06T11:27:12.910Z,2.08
2023-05-06T11:29:45.810Z,1.35
2023-05-06T11:32:24.157Z,2.00
2023-05-06T11:34:57.651Z,1.75
2023-05-06T11:37:28.210Z,1.80
2023-05-06T11:39:58.456Z,2.10
2023-05-06T11:42:28.679Z,1.85
2023-05-06T11:45:03.398Z,1.95
2023-05-06T11:47:33.260Z,3.22
2023-05-06T11:50:07.660Z,2.45
2023-05-06T11:52:38.259Z,3.53
2023-05-06T11:55:10.193Z,3.30
2023-05-06T11:57:45.130Z,3.10
2023-05-06T12:00:18.964Z,3.53
2023-05-06T12:02:48.881Z,2.90
2023-05-06T12:05:18.726Z,3.40
2023-05-06T12:07:48.565Z,3.60
2023-05-06T12:10:18.801Z,3.33
2023-05-06T12:12:48.711Z,3.22
2023-05-06T12:15:21.205Z,2.88
2023-05-06T12:17:51.176Z,2.75
2023-05-06T12:20:21.446Z,2.38
2023-05-06T12:23:06.043Z,2.17
2023-05-06T12:25:35.899Z,2.20
2023-05-06T12:28:16.099Z,2.33
2023-05-06T12:30:49.017Z,2.40
2023-05-06T12:33:18.812Z,2.65
2023-05-06T12:35:49.246Z,3.08
2023-05-06T12:38:19.610Z,2.50
2023-05-06T12:40:55.963Z,2.53
2023-05-06T12:43:31.404Z,2.17
2023-05-06T12:46:12.506Z,2.20
2023-05-06T12:48:44.921Z,2.30
2023-05-06T12:51:21.041Z,2.50
2023-05-06T12:53:50.877Z,2.13
2023-05-06T12:56:20.736Z,2.20
2023-05-06T12:59:00.441Z,2.60
2023-05-06T13:01:32.973Z,2.65
2023-05-06T13:04:02.949Z,2.72
2023-05-06T13:06:32.652Z,2.50
2023-05-06T13:09:02.631Z,2.10
2023-05-06T13:11:32.381Z,1.95
2023-05-06T13:14:02.099Z,2.13
2023-05-06T13:16:35.456Z,1.85
2023-05-06T13:19:05.975Z,1.75
2023-05-06T13:21:38.018Z,1.35
2023-05-06T13:24:08.162Z,1.70
2023-05-06T13:26:38.419Z,1.58
2023-05-06T13:29:08.433Z,1.27
2023-05-06T13:31:40.802Z,1.40
2023-05-06T13:34:20.068Z,1.70
2023-05-06T13:36:49.928Z,1.70
2023-05-06T13:39:20.008Z,1.48
2023-05-06T13:41:50.346Z,1.17
2023-05-06T13:44:20.154Z,1.42
2023-05-06T13:46:52.787Z,1.70
2023-05-06T13:49:22.567Z,1.48
2023-05-06T13:51:52.376Z,1.40
2023-05-06T13:54:22.192Z,1.20
2023-05-06T13:56:51.945Z,1.45
2023-05-06T13:59:22.221Z,1.50
2023-05-06T14:01:56.052Z,1.67
2023-05-06T14:04:26.066Z,1.65
2023-05-06T14:06:56.201Z,1.58
2023-05-06T14:09:30.399Z,1.38
2023-05-06T14:12:00.175Z,1.85
2023-05-06T14:14:30.202Z,1.23
2023-05-06T14:17:02.510Z,2.10
2023-05-06T14:19:32.972Z,1.77
2023-05-06T14:22:02.818Z,1.58
2023-05-06T14:24:32.560Z,1.90
2023-05-06T14:27:02.389Z,2.75
2023-05-06T14:29:32.346Z,1.90
2023-05-06T14:32:04.769Z,2.10
2023-05-06T14:34:37.188Z,1.77
2023-05-06T14:37:07.227Z,1.75
2023-05-06T14:39:36.988Z,1.42
2023-05-06T14:42:07.021Z,1.63
2023-05-06T14:44:39.243Z,1.67
2023-05-06T14:47:17.235Z,1.80
2023-05-06T14:49:47.280Z,1.85
2023-05-06T14:52:17.006Z,1.48
2023-05-06T14:54:46.896Z,1.83
2023-05-06T14:57:16.767Z,1.60
2023-05-06T14:59:46.941Z,1.70
2023-05-06T15:02:19.286Z,2.10
2023-05-06T15:04:49.061Z,2.20
2023-05-06T15:07:18.771Z,1.90
2023-05-06T15:09:48.561Z,2.00
2023-05-06T15:12:18.335Z,1.77
2023-05-06T15:14:48.180Z,1.98
2023-05-06T15:17:21.366Z,2.42
2023-05-06T15:19:51.437Z,3.00
2023-05-06T15:22:21.175Z,2.63
2023-05-06T15:24:50.961Z,4.45
2023-05-06T15:27:20.981Z,3.90
2023-05-06T15:29:50.707Z,4.57
2023-05-06T15:32:23.189Z,4.93
2023-05-06T15:34:52.979Z,4.43
2023-05-06T15:37:22.764Z,4.82
2023-05-06T15:39:52.770Z,5.75
2023-05-06T15:42:22.513Z,4.97
2023-05-06T15:44:53.660Z,5.45
2023-05-06T15:47:26.066Z,4.63
2023-05-06T15:49:57.616Z,5.85
2023-05-06T15:52:28.119Z,4.70
2023-05-06T15:54:59.838Z,4.75
2023-05-06T15:57:30.312Z,5.75
2023-05-06T16:00:00.304Z,6.53
2023-05-06T16:02:33.016Z,6.30
2023-05-06T16:05:06.696Z,6.68
2023-05-06T16:07:36.868Z,7.07
2023-05-06T16:10:07.210Z,6.63
2023-05-06T16:12:37.075Z,6.65
2023-05-06T16:15:07.182Z,6.35
2023-05-06T16:17:40.858Z,6.30
2023-05-06T16:20:13.254Z,6.85
2023-05-06T16:22:46.996Z,5.70
2023-05-06T16:25:19.281Z,6.82
2023-05-06T16:27:52.048Z,6.63
2023-05-06T16:30:22.028Z,6.95
2023-05-06T16:32:54.490Z,7.70
2023-05-06T16:35:24.385Z,8.70
2023-05-06T16:37:54.094Z,9.52
2023-05-06T16:40:23.866Z,8.93
2023-05-06T16:42:53.815Z,10.18
2023-05-06T16:45:23.586Z,10.05
2023-05-06T16:47:56.364Z,10.10
2023-05-06T16:50:26.207Z,9.15
2023-05-06T16:52:56.241Z,11.43
2023-05-06T16:55:25.990Z,10.80
2023-05-06T16:57:55.750Z,11.32
2023-05-06T17:00:25.760Z,10.57
2023-05-06T17:02:58.703Z,9.95
2023-05-06T17:11:32.710Z,10.43
2023-05-06T17:14:02.500Z,10.85
2023-05-06T17:16:32.268Z,12.90
2023-05-06T17:19:04.964Z,11.93
2023-05-06T17:21:34.922Z,12.43
2023-05-06T17:24:04.671Z,12.20
2023-05-06T17:26:34.512Z,11.82
2023-05-06T17:29:04.486Z,11.05
2023-05-06T17:31:34.172Z,12.18
2023-05-06T17:34:06.734Z,11.00
2023-05-06T17:36:36.448Z,13.05
2023-05-06T17:39:06.819Z,12.05
2023-05-06T17:41:36.530Z,11.25
2023-05-06T17:44:06.908Z,11.88
2023-05-06T17:46:37.152Z,13.18
2023-05-06T17:49:09.467Z,12.52
2023-05-06T17:51:41.157Z,12.75
2023-05-06T17:54:11.014Z,13.48
2023-05-06T17:56:41.006Z,12.35
2023-05-06T17:59:11.551Z,12.50
2023-05-06T18:01:41.319Z,14.00
2023-05-06T18:04:14.018Z,11.68
2023-05-06T18:06:44.555Z,11.90
2023-05-06T18:09:15.124Z,12.98
2023-05-06T18:11:44.822Z,13.10
2023-05-06T18:14:15.034Z,12.73
2023-05-06T18:16:45.488Z,13.45
2023-05-06T18:19:18.288Z,12.75
2023-05-06T18:21:48.214Z,13.27
2023-05-06T18:24:18.462Z,11.88
2023-05-06T18:26:48.188Z,11.57
2023-05-06T18:29:17.914Z,11.43
2023-05-06T18:31:47.716Z,12.07
2023-05-06T18:34:20.099Z,11.82
2023-05-06T18:36:50.006Z,12.13
2023-05-06T18:39:19.937Z,12.18
2023-05-06T18:41:49.660Z,11.57
2023-05-06T18:44:19.428Z,11.88
2023-05-06T18:46:49.150Z,12.20
2023-05-06T18:49:21.529Z,12.13
2023-05-06T18:51:51.472Z,11.88
2023-05-06T18:54:21.252Z,12.50
2023-05-06T18:56:52.090Z,12.73
2023-05-06T18:59:22.418Z,12.50
2023-05-06T19:01:52.172Z,12.05
2023-05-06T19:04:24.593Z,12.57
2023-05-06T19:06:54.438Z,13.27
2023-05-06T19:09:24.208Z,11.48
2023-05-06T19:11:54.210Z,13.63
2023-05-06T19:14:25.490Z,12.82
2023-05-06T19:16:55.631Z,12.68
2023-05-06T19:19:28.040Z,13.98
2023-05-06T19:21:57.803Z,15.20
2023-05-06T19:24:27.576Z,16.75
2023-05-06T19:26:57.694Z,15.70
2023-05-06T19:29:27.451Z,17.30
2023-05-06T19:31:57.189Z,16.05
2023-05-06T19:34:29.542Z,15.90
2023-05-06T19:36:59.281Z,18.55
2023-05-06T19:39:29.046Z,17.05
2023-05-06T19:41:59.170Z,17.95
2023-05-06T19:44:28.863Z,20.00
2023-05-06T19:46:58.802Z,19.05
2023-05-06T19:49:32.404Z,20.02
2023-05-06T19:52:02.367Z,18.58
2023-05-06T19:54:32.273Z,20.02
2023-05-06T19:57:03.148Z,20.13
2023-05-06T19:59:33.167Z,18.73
2023-05-06T20:02:03.293Z,19.75
2023-05-06T20:04:36.440Z,19.88
2023-05-06T20:09:36.335Z,19.92
2023-05-06T20:12:06.648Z,21.33
2023-05-06T20:14:38.785Z,19.98
2023-05-06T20:17:08.766Z,20.53
2023-05-06T20:19:41.105Z,20.00
2023-05-06T20:22:11.367Z,21.00
2023-05-06T20:24:41.130Z,21.30
2023-05-06T20:27:11.048Z,19.73
2023-05-06T20:29:41.074Z,19.58
2023-05-06T20:32:11.155Z,20.80
2023-05-06T20:34:43.691Z,20.55
2023-05-06T20:37:14.411Z,20.90
2023-05-06T20:39:44.355Z,20.83
2023-05-06T20:42:14.472Z,21.85
2023-05-06T20:44:44.241Z,19.52
2023-05-06T20:47:13.965Z,20.73
2023-05-06T20:49:46.301Z,19.77
2023-05-06T20:52:17.202Z,20.52
2023-05-06T20:54:47.575Z,17.98
2023-05-06T20:57:18.454Z,17.30
2023-05-06T20:59:49.696Z,15.63
2023-05-06T21:02:19.574Z,17.13
2023-05-06T21:04:52.091Z,17.20
2023-05-06T21:07:21.825Z,19.20
2023-05-06T21:09:51.543Z,19.48
2023-05-06T21:12:21.380Z,18.60
2023-05-06T21:14:51.126Z,19.02
2023-05-06T21:17:21.051Z,18.35
2023-05-06T21:19:53.771Z,17.08
2023-05-06T21:22:24.897Z,16.88
2023-05-06T21:24:56.093Z,18.63
2023-05-06T21:27:25.826Z,17.88
2023-05-06T21:29:55.549Z,18.15
2023-05-06T21:32:25.521Z,19.55
2023-05-06T21:34:58.074Z,16.85
2023-05-06T21:37:28.046Z,17.40
2023-05-06T21:39:57.892Z,16.92
2023-05-06T21:42:27.677Z,17.25
2023-05-06T21:44:57.576Z,18.02
2023-05-06T21:47:28.704Z,17.05
2023-05-06T21:50:01.057Z,17.73
2023-05-06T21:52:30.849Z,19.33
2023-05-06T21:55:00.916Z,18.70
2023-05-06T21:57:31.041Z,18.88
2023-05-06T22:00:01.262Z,17.65
2023-05-06T22:02:31.287Z,18.10
2023-05-06T22:05:03.722Z,17.85
2023-05-06T22:07:33.450Z,18.05
2023-05-06T22:10:03.418Z,17.08
2023-05-06T22:12:34.130Z,16.95
2023-05-06T22:15:04.029Z,16.40
2023-05-06T22:17:35.209Z,16.98
2023-05-06T22:20:11.153Z,17.80
2023-05-06T22:22:41.219Z,16.08
2023-05-06T22:25:11.727Z,16.75
2023-05-06T22:27:41.667Z,16.08
2023-05-06T22:30:12.306Z,16.05
2023-05-06T22:32:42.340Z,15.13
2023-05-06T22:35:16.306Z,15.77
2023-05-06T22:37:46.028Z,16.20
2023-05-06T22:40:15.854Z,15.13
2023-05-06T22:42:45.590Z,14.60
2023-05-06T22:45:15.261Z,14.30
2023-05-06T22:47:45.019Z,15.23
2023-05-06T22:50:17.540Z,14.75
2023-05-06T22:52:47.225Z,15.27
2023-05-06T22:55:17.202Z,15.05
2023-05-06T22:57:49.985Z,15.57
2023-05-06T23:00:20.181Z,15.68
2023-05-06T23:02:49.971Z,14.95
2023-05-06T23:05:22.392Z,15.00
2023-05-06T23:07:52.200Z,16.35
2023-05-06T23:10:22.112Z,14.82
2023-05-06T23:12:52.254Z,13.80
2023-05-06T23:15:21.991Z,13.25
2023-05-06T23:17:52.054Z,14.90
2023-05-06T23:20:24.405Z,14.82
2023-05-06T23:22:54.342Z,13.98
2023-05-06T23:25:24.052Z,14.25
2023-05-06T23:27:54.003Z,13.13
2023-05-06T23:30:23.727Z,12.68
2023-05-06T23:32:53.705Z,13.23
2023-05-06T23:35:26.120Z,13.43
2023-05-06T23:37:56.346Z,12.52
2023-05-06T23:40:26.111Z,12.40
2023-05-06T23:42:56.042Z,11.88
2023-05-06T23:45:25.954Z,12.52
2023-05-06T23:47:57.432Z,12.98
2023-05-06T23:50:29.763Z,13.50
2023-05-06T23:52:59.496Z,11.30
2023-05-06T23:55:29.350Z,11.48
2023-05-06T23:57:59.130Z,14.00
